sensor_id;sensor_type;location;lat;lon;timestamp;temperature;humidity
59098;DHT22;44883;52.760;6.610;2022-11-04T00:01:46;11.60;99.90
59098;DHT22;44883;52.760;6.610;2022-11-04T00:04:12;11.50;99.90
59098;DHT22;44883;52.760;6.610;2022-11-04T00:06:37;11.50;99.90
59098;DHT22;44883;52.760;6.610;2022-11-04T00:09:03;11.40;99.90
59098;DHT22;44883;52.760;6.610;2022-11-04T00:11:29;11.40;99.90
59098;DHT22;44883;52.760;6.610;2022-11-04T00:14:14;11.40;99.90
59098;DHT22;44883;52.760;6.610;2022-11-04T00:16:40;11.30;99.90
59098;DHT22;44883;52.760;6.610;2022-11-04T00:19:24;11.30;99.90
59098;DHT22;44883;52.760;6.610;2022-11-04T00:21:49;11.30;99.90
59098;DHT22;44883;52.760;6.610;2022-11-04T00:24:33;11.30;99.90
59098;DHT22;44883;52.760;6.610;2022-11-04T00:27:11;11.30;99.90
59098;DHT22;44883;52.760;6.610;2022-11-04T00:29:56;11.30;99.90
59098;DHT22;44883;52.760;6.610;2022-11-04T00:32:21;11.20;99.90
59098;DHT22;44883;52.760;6.610;2022-11-04T00:35:06;11.20;99.90
59098;DHT22;44883;52.760;6.610;2022-11-04T00:37:34;11.20;99.90
59098;DHT22;44883;52.760;6.610;2022-11-04T00:40:00;11.10;99.90
59098;DHT22;44883;52.760;6.610;2022-11-04T00:42:25;11.20;99.90
59098;DHT22;44883;52.760;6.610;2022-11-04T00:44:51;11.10;99.90
59098;DHT22;44883;52.760;6.610;2022-11-04T00:47:16;11.10;99.90
59098;DHT22;44883;52.760;6.610;2022-11-04T00:49:42;11.10;99.90
59098;DHT22;44883;52.760;6.610;2022-11-04T00:52:07;11.10;99.90
59098;DHT22;44883;52.760;6.610;2022-11-04T00:54:32;11.10;99.90
59098;DHT22;44883;52.760;6.610;2022-11-04T00:56:58;11.10;99.90
59098;DHT22;44883;52.760;6.610;2022-11-04T00:59:23;11.10;99.90
59098;DHT22;44883;52.760;6.610;2022-11-04T01:01:49;11.10;99.90
59098;DHT22;44883;52.760;6.610;2022-11-04T01:04:14;11.10;99.90
59098;DHT22;44883;52.760;6.610;2022-11-04T01:06:40;11.10;99.90
59098;DHT22;44883;52.760;6.610;2022-11-04T01:09:06;11.00;99.90
59098;DHT22;44883;52.760;6.610;2022-11-04T01:11:35;11.00;99.90
59098;DHT22;44883;52.760;6.610;2022-11-04T01:14:00;11.00;99.90
59098;DHT22;44883;52.760;6.610;2022-11-04T01:16:26;11.00;99.90
59098;DHT22;44883;52.760;6.610;2022-11-04T01:18:52;11.00;99.90
59098;DHT22;44883;52.760;6.610;2022-11-04T01:21:17;11.00;99.90
59098;DHT22;44883;52.760;6.610;2022-11-04T01:23:43;11.00;99.90
59098;DHT22;44883;52.760;6.610;2022-11-04T01:26:11;11.00;99.90
59098;DHT22;44883;52.760;6.610;2022-11-04T01:28:36;11.00;99.90
59098;DHT22;44883;52.760;6.610;2022-11-04T01:31:08;11.00;99.90
59098;DHT22;44883;52.760;6.610;2022-11-04T01:33:35;10.90;99.90
59098;DHT22;44883;52.760;6.610;2022-11-04T01:36:00;10.90;99.90
59098;DHT22;44883;52.760;6.610;2022-11-04T01:38:27;10.90;99.90
59098;DHT22;44883;52.760;6.610;2022-11-04T01:40:52;10.90;99.90
59098;DHT22;44883;52.760;6.610;2022-11-04T01:43:19;10.90;99.90
59098;DHT22;44883;52.760;6.610;2022-11-04T01:45:53;10.90;99.90
59098;DHT22;44883;52.760;6.610;2022-11-04T01:48:21;10.90;99.90
59098;DHT22;44883;52.760;6.610;2022-11-04T01:50:49;10.90;99.90
59098;DHT22;44883;52.760;6.610;2022-11-04T01:53:17;11.00;99.90
59098;DHT22;44883;52.760;6.610;2022-11-04T01:55:44;11.00;99.90
59098;DHT22;44883;52.760;6.610;2022-11-04T01:58:14;11.00;99.90
59098;DHT22;44883;52.760;6.610;2022-11-04T02:00:40;11.00;99.90
59098;DHT22;44883;52.760;6.610;2022-11-04T02:03:17;11.00;99.90
59098;DHT22;44883;52.760;6.610;2022-11-04T02:05:44;11.00;99.90
59098;DHT22;44883;52.760;6.610;2022-11-04T02:08:10;11.00;99.90
59098;DHT22;44883;52.760;6.610;2022-11-04T02:10:36;11.00;99.90
59098;DHT22;44883;52.760;6.610;2022-11-04T02:13:04;10.90;99.90
59098;DHT22;44883;52.760;6.610;2022-11-04T02:18:02;11.00;99.90
59098;DHT22;44883;52.760;6.610;2022-11-04T02:33:32;11.00;99.90
59098;DHT22;44883;52.760;6.610;2022-11-04T02:36:03;11.00;99.90
59098;DHT22;44883;52.760;6.610;2022-11-04T02:38:42;11.00;99.90
59098;DHT22;44883;52.760;6.610;2022-11-04T02:43:47;11.00;99.90
59098;DHT22;44883;52.760;6.610;2022-11-04T02:46:30;10.90;99.90
59098;DHT22;44883;52.760;6.610;2022-11-04T02:49:11;10.90;99.90
59098;DHT22;44883;52.760;6.610;2022-11-04T02:51:42;10.90;99.90
59098;DHT22;44883;52.760;6.610;2022-11-04T02:54:13;10.90;99.90
59098;DHT22;44883;52.760;6.610;2022-11-04T02:56:43;10.90;99.90
59098;DHT22;44883;52.760;6.610;2022-11-04T02:59:14;10.80;99.90
59098;DHT22;44883;52.760;6.610;2022-11-04T03:01:41;10.80;99.90
59098;DHT22;44883;52.760;6.610;2022-11-04T03:04:16;10.80;99.90
59098;DHT22;44883;52.760;6.610;2022-11-04T03:06:43;10.80;99.90
59098;DHT22;44883;52.760;6.610;2022-11-04T03:09:12;10.80;99.90
59098;DHT22;44883;52.760;6.610;2022-11-04T03:11:39;10.80;99.90
59098;DHT22;44883;52.760;6.610;2022-11-04T03:14:07;10.80;99.90
59098;DHT22;44883;52.760;6.610;2022-11-04T03:16:53;10.80;99.90
59098;DHT22;44883;52.760;6.610;2022-11-04T03:19:32;10.80;99.90
59098;DHT22;44883;52.760;6.610;2022-11-04T03:22:09;10.80;99.90
59098;DHT22;44883;52.760;6.610;2022-11-04T03:24:35;10.80;99.90
59098;DHT22;44883;52.760;6.610;2022-11-04T03:27:05;10.80;99.90
59098;DHT22;44883;52.760;6.610;2022-11-04T03:29:35;10.80;99.90
59098;DHT22;44883;52.760;6.610;2022-11-04T03:32:17;10.80;99.90
59098;DHT22;44883;52.760;6.610;2022-11-04T03:34:46;10.70;99.90
59098;DHT22;44883;52.760;6.610;2022-11-04T03:37:12;10.70;99.90
59098;DHT22;44883;52.760;6.610;2022-11-04T03:39:37;10.70;99.90
59098;DHT22;44883;52.760;6.610;2022-11-04T03:42:05;10.70;99.90
59098;DHT22;44883;52.760;6.610;2022-11-04T03:44:54;10.60;99.90
59098;DHT22;44883;52.760;6.610;2022-11-04T03:47:21;10.60;99.90
59098;DHT22;44883;52.760;6.610;2022-11-04T03:49:48;10.60;99.90
59098;DHT22;44883;52.760;6.610;2022-11-04T03:52:14;10.60;99.90
59098;DHT22;44883;52.760;6.610;2022-11-04T03:54:40;10.50;99.90
59098;DHT22;44883;52.760;6.610;2022-11-04T04:02:12;10.50;99.90
59098;DHT22;44883;52.760;6.610;2022-11-04T04:04:41;10.50;99.90
59098;DHT22;44883;52.760;6.610;2022-11-04T04:07:11;10.50;99.90
59098;DHT22;44883;52.760;6.610;2022-11-04T04:09:56;10.40;99.90
59098;DHT22;44883;52.760;6.610;2022-11-04T04:12:29;10.40;99.90
59098;DHT22;44883;52.760;6.610;2022-11-04T04:14:59;10.40;99.90
59098;DHT22;44883;52.760;6.610;2022-11-04T04:17:34;10.40;99.90
59098;DHT22;44883;52.760;6.610;2022-11-04T04:20:05;10.40;99.90
59098;DHT22;44883;52.760;6.610;2022-11-04T04:22:33;10.40;99.90
59098;DHT22;44883;52.760;6.610;2022-11-04T04:25:00;10.40;99.90
59098;DHT22;44883;52.760;6.610;2022-11-04T04:27:46;10.40;99.90
59098;DHT22;44883;52.760;6.610;2022-11-04T04:30:13;10.40;99.90
59098;DHT22;44883;52.760;6.610;2022-11-04T04:32:41;10.40;99.90
59098;DHT22;44883;52.760;6.610;2022-11-04T04:35:08;10.40;99.90
59098;DHT22;44883;52.760;6.610;2022-11-04T04:37:53;10.40;99.90
59098;DHT22;44883;52.760;6.610;2022-11-04T04:40:20;10.40;99.90
59098;DHT22;44883;52.760;6.610;2022-11-04T04:43:08;10.40;99.90
59098;DHT22;44883;52.760;6.610;2022-11-04T04:45:54;10.40;99.90
59098;DHT22;44883;52.760;6.610;2022-11-04T04:48:19;10.40;99.90
59098;DHT22;44883;52.760;6.610;2022-11-04T04:50:48;10.40;99.90
59098;DHT22;44883;52.760;6.610;2022-11-04T04:53:16;10.40;99.90
59098;DHT22;44883;52.760;6.610;2022-11-04T04:55:42;10.40;99.90
59098;DHT22;44883;52.760;6.610;2022-11-04T04:58:07;10.40;99.90
59098;DHT22;44883;52.760;6.610;2022-11-04T05:00:33;10.40;99.90
59098;DHT22;44883;52.760;6.610;2022-11-04T05:02:58;10.30;99.90
59098;DHT22;44883;52.760;6.610;2022-11-04T05:05:24;10.30;99.90
59098;DHT22;44883;52.760;6.610;2022-11-04T05:07:49;10.30;99.90
59098;DHT22;44883;52.760;6.610;2022-11-04T05:10:16;10.30;99.90
59098;DHT22;44883;52.760;6.610;2022-11-04T05:12:41;10.30;99.90
59098;DHT22;44883;52.760;6.610;2022-11-04T05:15:26;10.20;99.90
59098;DHT22;44883;52.760;6.610;2022-11-04T05:17:56;10.20;99.90
59098;DHT22;44883;52.760;6.610;2022-11-04T05:20:21;10.10;99.90
59098;DHT22;44883;52.760;6.610;2022-11-04T05:22:47;10.20;99.90
59098;DHT22;44883;52.760;6.610;2022-11-04T05:25:12;10.10;99.90
59098;DHT22;44883;52.760;6.610;2022-11-04T05:27:38;10.10;99.90
59098;DHT22;44883;52.760;6.610;2022-11-04T05:30:04;10.10;99.90
59098;DHT22;44883;52.760;6.610;2022-11-04T05:32:29;10.10;99.90
59098;DHT22;44883;52.760;6.610;2022-11-04T05:34:57;10.00;99.90
59098;DHT22;44883;52.760;6.610;2022-11-04T05:37:23;10.00;99.90
59098;DHT22;44883;52.760;6.610;2022-11-04T05:39:48;10.00;99.90
59098;DHT22;44883;52.760;6.610;2022-11-04T05:42:14;9.90;99.90
59098;DHT22;44883;52.760;6.610;2022-11-04T05:44:39;9.90;99.90
59098;DHT22;44883;52.760;6.610;2022-11-04T05:47:05;9.80;99.90
59098;DHT22;44883;52.760;6.610;2022-11-04T05:49:30;9.70;99.90
59098;DHT22;44883;52.760;6.610;2022-11-04T05:51:56;9.70;99.90
59098;DHT22;44883;52.760;6.610;2022-11-04T05:54:21;9.50;99.90
59098;DHT22;44883;52.760;6.610;2022-11-04T05:56:47;9.50;99.90
59098;DHT22;44883;52.760;6.610;2022-11-04T05:59:12;9.40;99.90
59098;DHT22;44883;52.760;6.610;2022-11-04T06:01:38;9.40;99.90
59098;DHT22;44883;52.760;6.610;2022-11-04T06:04:05;9.40;99.90
59098;DHT22;44883;52.760;6.610;2022-11-04T06:06:31;9.40;99.90
59098;DHT22;44883;52.760;6.610;2022-11-04T06:08:57;9.40;99.90
59098;DHT22;44883;52.760;6.610;2022-11-04T06:11:23;9.30;99.90
59098;DHT22;44883;52.760;6.610;2022-11-04T06:13:49;9.30;99.90
59098;DHT22;44883;52.760;6.610;2022-11-04T06:16:14;9.30;99.90
59098;DHT22;44883;52.760;6.610;2022-11-04T06:18:40;9.30;99.90
59098;DHT22;44883;52.760;6.610;2022-11-04T06:21:09;9.30;99.90
59098;DHT22;44883;52.760;6.610;2022-11-04T06:23:35;9.30;99.90
59098;DHT22;44883;52.760;6.610;2022-11-04T06:26:00;9.40;99.90
59098;DHT22;44883;52.760;6.610;2022-11-04T06:28:26;9.40;99.90
59098;DHT22;44883;52.760;6.610;2022-11-04T06:30:51;9.40;99.90
59098;DHT22;44883;52.760;6.610;2022-11-04T06:33:17;9.40;99.90
59098;DHT22;44883;52.760;6.610;2022-11-04T06:35:42;9.50;99.90
59098;DHT22;44883;52.760;6.610;2022-11-04T06:38:08;9.50;99.90
59098;DHT22;44883;52.760;6.610;2022-11-04T06:40:33;9.50;99.90
59098;DHT22;44883;52.760;6.610;2022-11-04T06:42:59;9.50;99.90
59098;DHT22;44883;52.760;6.610;2022-11-04T06:45:24;9.50;99.90
59098;DHT22;44883;52.760;6.610;2022-11-04T06:47:50;9.40;99.90
59098;DHT22;44883;52.760;6.610;2022-11-04T06:50:15;9.40;99.90
59098;DHT22;44883;52.760;6.610;2022-11-04T06:52:41;9.40;99.90
59098;DHT22;44883;52.760;6.610;2022-11-04T06:55:06;9.40;99.90
59098;DHT22;44883;52.760;6.610;2022-11-04T06:57:32;9.40;99.90
59098;DHT22;44883;52.760;6.610;2022-11-04T06:59:58;9.40;99.90
59098;DHT22;44883;52.760;6.610;2022-11-04T07:02:23;9.40;99.90
59098;DHT22;44883;52.760;6.610;2022-11-04T07:04:49;9.50;99.90
59098;DHT22;44883;52.760;6.610;2022-11-04T07:07:14;9.50;99.90
59098;DHT22;44883;52.760;6.610;2022-11-04T07:09:40;9.60;99.90
59098;DHT22;44883;52.760;6.610;2022-11-04T07:12:05;9.60;99.90
59098;DHT22;44883;52.760;6.610;2022-11-04T07:14:31;9.60;99.90
59098;DHT22;44883;52.760;6.610;2022-11-04T07:16:56;9.60;99.90
59098;DHT22;44883;52.760;6.610;2022-11-04T07:19:22;9.70;99.90
59098;DHT22;44883;52.760;6.610;2022-11-04T07:21:47;9.80;99.90
59098;DHT22;44883;52.760;6.610;2022-11-04T07:24:13;9.90;99.90
59098;DHT22;44883;52.760;6.610;2022-11-04T07:26:38;10.30;99.90
59098;DHT22;44883;52.760;6.610;2022-11-04T07:29:04;10.50;99.90
59098;DHT22;44883;52.760;6.610;2022-11-04T07:31:30;10.50;99.90
59098;DHT22;44883;52.760;6.610;2022-11-04T07:33:56;10.40;99.90
59098;DHT22;44883;52.760;6.610;2022-11-04T07:36:22;10.40;99.90
59098;DHT22;44883;52.760;6.610;2022-11-04T07:38:47;10.50;99.90
59098;DHT22;44883;52.760;6.610;2022-11-04T07:41:13;10.70;99.90
59098;DHT22;44883;52.760;6.610;2022-11-04T07:43:38;11.20;99.90
59098;DHT22;44883;52.760;6.610;2022-11-04T07:46:09;12.20;99.90
59098;DHT22;44883;52.760;6.610;2022-11-04T07:48:35;13.00;99.90
59098;DHT22;44883;52.760;6.610;2022-11-04T07:51:02;12.90;99.90
59098;DHT22;44883;52.760;6.610;2022-11-04T07:53:28;12.60;99.90
59098;DHT22;44883;52.760;6.610;2022-11-04T07:55:54;12.40;99.90
59098;DHT22;44883;52.760;6.610;2022-11-04T07:58:19;12.20;99.90
59098;DHT22;44883;52.760;6.610;2022-11-04T08:00:45;12.10;99.90
59098;DHT22;44883;52.760;6.610;2022-11-04T08:03:11;11.90;99.90
59098;DHT22;44883;52.760;6.610;2022-11-04T08:05:36;11.70;99.90
59098;DHT22;44883;52.760;6.610;2022-11-04T08:08:02;11.60;99.90
59098;DHT22;44883;52.760;6.610;2022-11-04T08:10:27;11.40;99.90
59098;DHT22;44883;52.760;6.610;2022-11-04T08:12:53;11.30;99.90
59098;DHT22;44883;52.760;6.610;2022-11-04T08:15:19;11.10;99.90
59098;DHT22;44883;52.760;6.610;2022-11-04T08:17:44;10.90;99.90
59098;DHT22;44883;52.760;6.610;2022-11-04T08:20:09;10.80;99.90
59098;DHT22;44883;52.760;6.610;2022-11-04T08:22:36;10.80;99.90
59098;DHT22;44883;52.760;6.610;2022-11-04T08:25:01;11.00;99.90
59098;DHT22;44883;52.760;6.610;2022-11-04T08:27:27;11.00;99.90
59098;DHT22;44883;52.760;6.610;2022-11-04T08:29:52;11.00;99.90
59098;DHT22;44883;52.760;6.610;2022-11-04T08:32:18;11.00;99.90
59098;DHT22;44883;52.760;6.610;2022-11-04T08:34:43;11.00;99.90
59098;DHT22;44883;52.760;6.610;2022-11-04T08:37:12;11.10;99.90
59098;DHT22;44883;52.760;6.610;2022-11-04T08:39:37;11.20;99.90
59098;DHT22;44883;52.760;6.610;2022-11-04T08:42:03;11.30;99.90
59098;DHT22;44883;52.760;6.610;2022-11-04T08:44:28;11.30;99.90
59098;DHT22;44883;52.760;6.610;2022-11-04T08:46:54;11.30;99.90
59098;DHT22;44883;52.760;6.610;2022-11-04T08:49:19;11.30;99.90
59098;DHT22;44883;52.760;6.610;2022-11-04T08:51:45;11.40;99.90
59098;DHT22;44883;52.760;6.610;2022-11-04T08:54:13;11.50;99.90
59098;DHT22;44883;52.760;6.610;2022-11-04T08:56:40;11.50;99.90
59098;DHT22;44883;52.760;6.610;2022-11-04T08:59:05;11.50;99.90
59098;DHT22;44883;52.760;6.610;2022-11-04T09:01:32;11.50;99.90
59098;DHT22;44883;52.760;6.610;2022-11-04T09:03:58;11.50;99.90
59098;DHT22;44883;52.760;6.610;2022-11-04T09:06:28;11.60;99.90
59098;DHT22;44883;52.760;6.610;2022-11-04T09:08:54;11.80;99.90
59098;DHT22;44883;52.760;6.610;2022-11-04T09:11:22;11.80;99.90
59098;DHT22;44883;52.760;6.610;2022-11-04T09:13:48;11.80;99.90
59098;DHT22;44883;52.760;6.610;2022-11-04T09:16:14;11.80;99.90
59098;DHT22;44883;52.760;6.610;2022-11-04T09:18:40;11.90;99.90
59098;DHT22;44883;52.760;6.610;2022-11-04T09:21:06;11.90;99.90
59098;DHT22;44883;52.760;6.610;2022-11-04T09:23:32;11.80;99.90
59098;DHT22;44883;52.760;6.610;2022-11-04T09:26:02;11.80;99.90
59098;DHT22;44883;52.760;6.610;2022-11-04T09:28:28;11.70;99.90
59098;DHT22;44883;52.760;6.610;2022-11-04T09:30:54;11.70;99.90
59098;DHT22;44883;52.760;6.610;2022-11-04T09:33:19;11.70;99.90
59098;DHT22;44883;52.760;6.610;2022-11-04T09:35:53;11.70;99.90
59098;DHT22;44883;52.760;6.610;2022-11-04T09:38:18;11.80;99.90
59098;DHT22;44883;52.760;6.610;2022-11-04T09:40:44;11.80;99.90
59098;DHT22;44883;52.760;6.610;2022-11-04T09:45:47;11.60;99.90
59098;DHT22;44883;52.760;6.610;2022-11-04T09:48:32;11.60;99.90
59098;DHT22;44883;52.760;6.610;2022-11-04T09:50:59;11.60;99.90
59098;DHT22;44883;52.760;6.610;2022-11-04T09:53:27;11.60;99.90
59098;DHT22;44883;52.760;6.610;2022-11-04T09:55:56;11.80;99.90
59098;DHT22;44883;52.760;6.610;2022-11-04T09:58:22;12.00;99.90
59098;DHT22;44883;52.760;6.610;2022-11-04T10:00:50;12.30;99.90
59098;DHT22;44883;52.760;6.610;2022-11-04T10:03:21;12.60;99.90
59098;DHT22;44883;52.760;6.610;2022-11-04T10:42:03;12.40;99.90
59098;DHT22;44883;52.760;6.610;2022-11-04T10:44:32;12.40;99.90
59098;DHT22;44883;52.760;6.610;2022-11-04T10:49:37;12.40;99.90
59098;DHT22;44883;52.760;6.610;2022-11-04T10:52:06;12.40;99.90
59098;DHT22;44883;52.760;6.610;2022-11-04T10:54:36;12.30;99.90
59098;DHT22;44883;52.760;6.610;2022-11-04T10:57:02;12.30;99.90
59098;DHT22;44883;52.760;6.610;2022-11-04T11:00:36;12.30;99.90
59098;DHT22;44883;52.760;6.610;2022-11-04T11:03:02;12.30;99.90
59098;DHT22;44883;52.760;6.610;2022-11-04T11:05:28;12.20;99.90
59098;DHT22;44883;52.760;6.610;2022-11-04T11:07:54;12.20;99.90
59098;DHT22;44883;52.760;6.610;2022-11-04T11:10:22;12.10;99.90
59098;DHT22;44883;52.760;6.610;2022-11-04T11:12:52;12.10;99.90
59098;DHT22;44883;52.760;6.610;2022-11-04T11:15:24;12.20;99.90
59098;DHT22;44883;52.760;6.610;2022-11-04T11:17:51;12.20;99.90
59098;DHT22;44883;52.760;6.610;2022-11-04T11:20:22;12.30;99.90
59098;DHT22;44883;52.760;6.610;2022-11-04T11:22:49;12.30;99.90
59098;DHT22;44883;52.760;6.610;2022-11-04T11:25:29;12.40;99.90
59098;DHT22;44883;52.760;6.610;2022-11-04T11:27:59;12.40;99.90
59098;DHT22;44883;52.760;6.610;2022-11-04T11:32:51;12.40;99.90
59098;DHT22;44883;52.760;6.610;2022-11-04T11:35:21;12.40;99.90
59098;DHT22;44883;52.760;6.610;2022-11-04T11:37:47;12.30;99.90
59098;DHT22;44883;52.760;6.610;2022-11-04T11:40:26;12.30;99.90
59098;DHT22;44883;52.760;6.610;2022-11-04T11:42:53;12.30;99.90
59098;DHT22;44883;52.760;6.610;2022-11-04T11:45:19;12.30;99.90
59098;DHT22;44883;52.760;6.610;2022-11-04T11:47:44;12.30;99.90
59098;DHT22;44883;52.760;6.610;2022-11-04T11:52:37;12.10;99.90
59098;DHT22;44883;52.760;6.610;2022-11-04T11:57:59;12.00;99.90
59098;DHT22;44883;52.760;6.610;2022-11-04T12:00:27;11.90;99.90
59098;DHT22;44883;52.760;6.610;2022-11-04T12:03:01;11.80;99.90
59098;DHT22;44883;52.760;6.610;2022-11-04T12:05:32;11.80;99.90
59098;DHT22;44883;52.760;6.610;2022-11-04T12:10:41;11.80;99.90
59098;DHT22;44883;52.760;6.610;2022-11-04T12:13:19;11.90;99.90
59098;DHT22;44883;52.760;6.610;2022-11-04T12:18:29;12.00;99.90
59098;DHT22;44883;52.760;6.610;2022-11-04T12:21:08;12.10;99.90
59098;DHT22;44883;52.760;6.610;2022-11-04T12:23:49;12.20;99.90
59098;DHT22;44883;52.760;6.610;2022-11-04T12:33:59;12.50;99.90
59098;DHT22;44883;52.760;6.610;2022-11-04T12:39:00;12.60;99.90
59098;DHT22;44883;52.760;6.610;2022-11-04T12:41:41;12.60;99.90
59098;DHT22;44883;52.760;6.610;2022-11-04T12:52:39;12.70;99.90
59098;DHT22;44883;52.760;6.610;2022-11-04T13:00:12;12.70;99.90
59098;DHT22;44883;52.760;6.610;2022-11-04T13:02:48;12.50;99.90
59098;DHT22;44883;52.760;6.610;2022-11-04T13:07:49;12.00;99.90
59098;DHT22;44883;52.760;6.610;2022-11-04T13:10:18;11.80;99.90
59098;DHT22;44883;52.760;6.610;2022-11-04T13:12:45;11.60;99.90
59098;DHT22;44883;52.760;6.610;2022-11-04T13:17:37;11.30;99.90
59098;DHT22;44883;52.760;6.610;2022-11-04T13:22:38;11.10;99.90
59098;DHT22;44883;52.760;6.610;2022-11-04T13:25:06;11.00;99.90
59098;DHT22;44883;52.760;6.610;2022-11-04T13:27:38;10.90;99.90
59098;DHT22;44883;52.760;6.610;2022-11-04T13:30:06;10.80;99.90
59098;DHT22;44883;52.760;6.610;2022-11-04T13:32:37;10.80;99.90
59098;DHT22;44883;52.760;6.610;2022-11-04T13:35:11;10.70;99.90
59098;DHT22;44883;52.760;6.610;2022-11-04T13:37:40;10.70;99.90
59098;DHT22;44883;52.760;6.610;2022-11-04T13:40:28;10.70;99.90
59098;DHT22;44883;52.760;6.610;2022-11-04T13:43:02;10.70;99.90
59098;DHT22;44883;52.760;6.610;2022-11-04T13:45:51;10.80;99.90
59098;DHT22;44883;52.760;6.610;2022-11-04T13:48:19;11.00;99.90
59098;DHT22;44883;52.760;6.610;2022-11-04T13:50:53;11.10;99.90
59098;DHT22;44883;52.760;6.610;2022-11-04T13:56:09;11.20;99.90
59098;DHT22;44883;52.760;6.610;2022-11-04T13:58:50;11.20;99.90
59098;DHT22;44883;52.760;6.610;2022-11-04T14:04:01;11.10;99.90
59098;DHT22;44883;52.760;6.610;2022-11-04T14:14:49;11.10;99.90
59098;DHT22;44883;52.760;6.610;2022-11-04T14:22:36;11.00;99.90
59098;DHT22;44883;52.760;6.610;2022-11-04T14:25:17;10.90;99.90
59098;DHT22;44883;52.760;6.610;2022-11-04T14:27:43;10.90;99.90
59098;DHT22;44883;52.760;6.610;2022-11-04T14:32:55;10.80;99.90
59098;DHT22;44883;52.760;6.610;2022-11-04T14:35:23;10.70;99.90
59098;DHT22;44883;52.760;6.610;2022-11-04T14:37:52;10.60;99.90
59098;DHT22;44883;52.760;6.610;2022-11-04T14:40:22;10.60;99.90
59098;DHT22;44883;52.760;6.610;2022-11-04T14:42:51;10.50;99.90
59098;DHT22;44883;52.760;6.610;2022-11-04T14:45:36;10.50;99.90
59098;DHT22;44883;52.760;6.610;2022-11-04T14:48:14;10.50;99.90
59098;DHT22;44883;52.760;6.610;2022-11-04T14:50:42;10.40;99.90
59098;DHT22;44883;52.760;6.610;2022-11-04T14:53:09;10.40;99.90
59098;DHT22;44883;52.760;6.610;2022-11-04T14:55:39;10.30;99.90
59098;DHT22;44883;52.760;6.610;2022-11-04T14:58:22;10.30;99.90
59098;DHT22;44883;52.760;6.610;2022-11-04T15:05:48;10.10;99.90
59098;DHT22;44883;52.760;6.610;2022-11-04T15:11:14;10.10;99.90
59098;DHT22;44883;52.760;6.610;2022-11-04T15:13:49;10.00;99.90
59098;DHT22;44883;52.760;6.610;2022-11-04T15:16:19;10.00;99.90
59098;DHT22;44883;52.760;6.610;2022-11-04T15:18:45;9.90;99.90
59098;DHT22;44883;52.760;6.610;2022-11-04T15:21:11;9.90;99.90
59098;DHT22;44883;52.760;6.610;2022-11-04T15:23:47;9.80;99.90
59098;DHT22;44883;52.760;6.610;2022-11-04T15:26:20;9.80;99.90
59098;DHT22;44883;52.760;6.610;2022-11-04T15:28:47;9.70;99.90
59098;DHT22;44883;52.760;6.610;2022-11-04T15:31:17;9.70;99.90
59098;DHT22;44883;52.760;6.610;2022-11-04T15:33:50;9.70;99.90
59098;DHT22;44883;52.760;6.610;2022-11-04T15:38:46;9.60;99.90
59098;DHT22;44883;52.760;6.610;2022-11-04T15:41:13;9.60;99.90
59098;DHT22;44883;52.760;6.610;2022-11-04T15:43:58;9.60;99.90
59098;DHT22;44883;52.760;6.610;2022-11-04T15:46:23;9.60;99.90
59098;DHT22;44883;52.760;6.610;2022-11-04T15:49:03;9.50;99.90
59098;DHT22;44883;52.760;6.610;2022-11-04T15:51:30;9.50;99.90
59098;DHT22;44883;52.760;6.610;2022-11-04T15:56:46;9.50;99.90
59098;DHT22;44883;52.760;6.610;2022-11-04T15:59:17;9.50;99.90
59098;DHT22;44883;52.760;6.610;2022-11-04T16:01:44;9.50;99.90
59098;DHT22;44883;52.760;6.610;2022-11-04T16:04:10;9.50;99.90
59098;DHT22;44883;52.760;6.610;2022-11-04T16:09:03;9.50;99.90
59098;DHT22;44883;52.760;6.610;2022-11-04T16:11:28;9.50;99.90
59098;DHT22;44883;52.760;6.610;2022-11-04T16:13:57;9.50;99.90
59098;DHT22;44883;52.760;6.610;2022-11-04T16:16:38;9.50;99.90
59098;DHT22;44883;52.760;6.610;2022-11-04T16:19:03;9.50;99.90
59098;DHT22;44883;52.760;6.610;2022-11-04T16:21:34;9.50;99.90
59098;DHT22;44883;52.760;6.610;2022-11-04T16:24:04;9.50;99.90
59098;DHT22;44883;52.760;6.610;2022-11-04T16:26:38;9.50;99.90
59098;DHT22;44883;52.760;6.610;2022-11-04T16:29:06;9.50;99.90
59098;DHT22;44883;52.760;6.610;2022-11-04T16:31:34;9.40;99.90
59098;DHT22;44883;52.760;6.610;2022-11-04T16:34:00;9.40;99.90
59098;DHT22;44883;52.760;6.610;2022-11-04T16:36:25;9.40;99.90
59098;DHT22;44883;52.760;6.610;2022-11-04T16:38:55;9.40;99.90
59098;DHT22;44883;52.760;6.610;2022-11-04T16:41:22;9.40;99.90
59098;DHT22;44883;52.760;6.610;2022-11-04T16:43:47;9.40;99.90
59098;DHT22;44883;52.760;6.610;2022-11-04T16:46:13;9.30;99.90
59098;DHT22;44883;52.760;6.610;2022-11-04T16:48:39;9.30;99.90
59098;DHT22;44883;52.760;6.610;2022-11-04T16:51:05;9.30;99.90
59098;DHT22;44883;52.760;6.610;2022-11-04T16:53:30;9.30;99.90
59098;DHT22;44883;52.760;6.610;2022-11-04T16:55:56;9.30;99.90
59098;DHT22;44883;52.760;6.610;2022-11-04T16:58:21;9.20;99.90
59098;DHT22;44883;52.760;6.610;2022-11-04T17:00:47;9.20;99.90
59098;DHT22;44883;52.760;6.610;2022-11-04T17:03:13;9.20;99.90
59098;DHT22;44883;52.760;6.610;2022-11-04T17:05:45;9.10;99.90
59098;DHT22;44883;52.760;6.610;2022-11-04T17:08:11;9.10;99.90
59098;DHT22;44883;52.760;6.610;2022-11-04T17:10:36;9.10;99.90
59098;DHT22;44883;52.760;6.610;2022-11-04T17:13:02;9.00;99.90
59098;DHT22;44883;52.760;6.610;2022-11-04T17:15:27;9.00;99.90
59098;DHT22;44883;52.760;6.610;2022-11-04T17:17:53;8.90;99.90
59098;DHT22;44883;52.760;6.610;2022-11-04T17:20:19;8.90;99.90
59098;DHT22;44883;52.760;6.610;2022-11-04T17:22:45;8.90;99.90
59098;DHT22;44883;52.760;6.610;2022-11-04T17:25:16;8.90;99.90
59098;DHT22;44883;52.760;6.610;2022-11-04T17:27:42;8.80;99.90
59098;DHT22;44883;52.760;6.610;2022-11-04T17:30:08;8.80;99.90
59098;DHT22;44883;52.760;6.610;2022-11-04T17:32:34;8.80;99.90
59098;DHT22;44883;52.760;6.610;2022-11-04T17:34:59;8.70;99.90
59098;DHT22;44883;52.760;6.610;2022-11-04T17:37:25;8.70;99.90
59098;DHT22;44883;52.760;6.610;2022-11-04T17:39:51;8.70;99.90
59098;DHT22;44883;52.760;6.610;2022-11-04T17:42:17;8.70;99.90
59098;DHT22;44883;52.760;6.610;2022-11-04T17:45:01;8.70;99.90
59098;DHT22;44883;52.760;6.610;2022-11-04T17:47:26;8.70;99.90
59098;DHT22;44883;52.760;6.610;2022-11-04T17:49:52;8.70;99.90
59098;DHT22;44883;52.760;6.610;2022-11-04T17:52:17;8.60;99.90
59098;DHT22;44883;52.760;6.610;2022-11-04T17:54:43;8.70;99.90
59098;DHT22;44883;52.760;6.610;2022-11-04T17:57:08;8.60;99.90
59098;DHT22;44883;52.760;6.610;2022-11-04T17:59:34;8.60;99.90
59098;DHT22;44883;52.760;6.610;2022-11-04T18:01:59;8.60;99.90
59098;DHT22;44883;52.760;6.610;2022-11-04T18:04:25;8.50;99.90
59098;DHT22;44883;52.760;6.610;2022-11-04T18:06:50;8.50;99.90
59098;DHT22;44883;52.760;6.610;2022-11-04T18:09:16;8.40;99.90
59098;DHT22;44883;52.760;6.610;2022-11-04T18:11:42;8.40;99.90